Time;durP1;ratioP1;P1;durP2;ratioP2;P2;SDS_P1;SDS_P2;PMS_P1;PMS_P2;Temp;Humidity;BMP_temperature;BMP_pressure;BME280_temperature;BME280_humidity;BME280_pressure;Samples;Min_cycle;Max_cycle;Signal;HPM_P1;HPM_P2
2022/03/26 01:32:37;;;;;;;29.38;13.23;;;;;;;7.10;42.99;95231.50;5831507;23;20310;-84
2022/03/26 01:35:04;;;;;;;26.83;13.65;;;;;;;6.95;43.23;95231.91;4962960;28;20038;-85
2022/03/26 01:37:30;;;;;;;27.60;13.73;;;;;;;6.88;43.45;95231.22;4951760;29;20090;-85
2022/03/26 01:39:55;;;;;;;37.95;13.90;;;;;;;7.39;42.39;95226.44;4954786;28;20031;-84
2022/03/26 01:42:21;;;;;;;31.20;13.75;;;;;;;7.19;42.59;95239.78;4957745;28;20049;-85
2022/03/26 01:44:47;;;;;;;28.13;13.20;;;;;;;7.15;42.76;95233.44;4970396;28;20442;-85
2022/03/26 01:47:12;;;;;;;32.35;12.45;;;;;;;7.34;42.36;95229.72;4956562;28;20049;-84
2022/03/26 01:49:38;;;;;;;24.88;12.43;;;;;;;7.58;41.74;95232.34;4957384;28;20023;-84
2022/03/26 01:52:05;;;;;;;25.58;12.88;;;;;;;7.55;42.06;95232.00;4958630;28;20394;-84
2022/03/26 01:54:31;;;;;;;27.50;12.60;;;;;;;7.61;41.56;95226.69;4957447;29;20035;-84
2022/03/26 01:56:57;;;;;;;22.50;12.13;;;;;;;7.54;41.62;95226.00;4968749;28;20133;-84
2022/03/26 01:59:27;;;;;;;31.38;13.15;;;;;;;7.34;42.63;95226.34;4947044;28;20121;-84
2022/03/26 02:01:53;;;;;;;27.50;13.15;;;;;;;7.08;43.36;95234.31;4947626;28;20050;-84
2022/03/26 02:04:19;;;;;;;31.38;13.70;;;;;;;6.97;43.43;95232.50;4947273;28;20051;-84
2022/03/26 02:06:45;;;;;;;31.00;12.80;;;;;;;6.96;43.20;95238.72;4962870;28;20031;-84
2022/03/26 02:09:12;;;;;;;31.17;13.23;;;;;;;6.96;43.27;95232.72;4962852;28;20049;-85
2022/03/26 02:11:40;;;;;;;28.30;13.02;;;;;;;6.86;43.53;95236.63;4962434;28;20129;-85
2022/03/26 02:14:09;;;;;;;31.80;14.45;;;;;;;6.72;45.76;95243.03;4946791;28;20034;-84
2022/03/26 02:16:37;;;;;;;28.40;13.52;;;;;;;6.66;44.15;95242.09;4963015;28;20042;-84
2022/03/26 02:19:07;;;;;;;28.48;13.18;;;;;;;6.61;43.81;95236.78;4962729;28;20027;-84
2022/03/26 02:21:37;;;;;;;30.77;12.80;;;;;;;6.78;43.54;95227.31;4946304;28;20034;-84
2022/03/26 02:24:05;;;;;;;27.50;12.50;;;;;;;7.08;42.97;95236.13;4962932;28;20031;-84
2022/03/26 02:26:31;;;;;;;27.83;12.85;;;;;;;7.06;43.15;95238.19;4946867;28;20420;-84
2022/03/26 02:29:00;;;;;;;29.77;12.77;;;;;;;6.97;43.33;95239.50;4946565;28;20077;-84
2022/03/26 02:31:27;;;;;;;31.35;13.10;;;;;;;6.91;43.25;95239.38;4943302;28;20041;-84
2022/03/26 02:33:53;;;;;;;27.13;13.10;;;;;;;6.81;43.34;95230.50;4946555;28;20027;-84
2022/03/26 02:36:18;;;;;;;26.63;13.07;;;;;;;6.82;43.55;95232.88;4946521;28;20089;-84
2022/03/26 02:38:44;;;;;;;28.35;12.55;;;;;;;6.75;43.30;95240.78;4946412;28;20490;-84
2022/03/26 02:41:09;;;;;;;29.20;12.55;;;;;;;6.86;42.98;95235.84;4946202;28;20137;-84
2022/03/26 02:43:35;;;;;;;32.10;13.18;;;;;;;6.81;43.06;95233.91;4962194;28;20118;-84
2022/03/26 02:46:01;;;;;;;27.30;12.60;;;;;;;7.17;42.40;95234.81;4962064;28;20031;-84
2022/03/26 02:48:27;;;;;;;29.10;12.80;;;;;;;7.02;42.67;95234.41;4962411;28;20034;-84
2022/03/26 02:50:54;;;;;;;24.63;12.15;;;;;;;6.98;42.67;95234.09;4961894;28;20022;-84
2022/03/26 02:53:19;;;;;;;30.83;11.98;;;;;;;7.01;42.68;95233.63;4961845;28;20384;-85
2022/03/26 02:55:45;;;;;;;27.88;13.02;;;;;;;6.94;42.77;95230.31;4961931;28;20030;-84
2022/03/26 02:58:10;;;;;;;27.90;13.57;;;;;;;6.88;42.96;95239.81;4961892;28;20347;-84
2022/03/26 03:00:37;;;;;;;26.50;12.75;;;;;;;6.75;43.31;95242.63;4961555;28;20034;-84
2022/03/26 03:03:03;;;;;;;27.75;12.65;;;;;;;6.83;43.31;95242.28;4946075;28;20130;-84
2022/03/26 03:05:28;;;;;;;28.45;12.98;;;;;;;6.84;43.53;95241.28;4962082;28;20113;-84
2022/03/26 03:07:54;;;;;;;26.80;13.07;;;;;;;6.74;43.57;95246.22;4945898;28;20035;-85
2022/03/26 03:10:25;;;;;;;31.88;13.68;;;;;;;6.53;43.88;95242.28;4945600;28;20121;-84
2022/03/26 03:12:51;;;;;;;29.17;13.40;;;;;;;6.51;43.91;95243.28;4962314;28;20034;-84
2022/03/26 03:15:17;;;;;;;29.58;13.45;;;;;;;6.52;44.24;95241.50;4961584;28;20329;-85
2022/03/26 03:17:44;;;;;;;29.02;13.05;;;;;;;6.54;44.04;95249.09;4945897;28;20050;-84
2022/03/26 03:20:10;;;;;;;29.23;14.40;;;;;;;6.45;44.63;95245.97;4961385;28;20109;-85
2022/03/26 03:22:36;;;;;;;29.60;14.15;;;;;;;6.51;44.49;95247.72;4961215;28;20034;-85
2022/03/26 03:25:03;;;;;;;39.50;14.32;;;;;;;6.56;44.36;95247.06;4961684;28;20031;-85
2022/03/26 03:27:29;;;;;;;30.98;13.07;;;;;;;6.45;44.43;95245.97;4945548;28;20468;-84
2022/03/26 03:29:54;;;;;;;31.00;14.30;;;;;;;6.43;44.70;95242.78;4961234;28;20105;-84
2022/03/26 03:32:20;;;;;;;29.75;13.65;;;;;;;6.39;45.20;95242.47;4945365;28;20404;-84
2022/03/26 03:34:45;;;;;;;30.73;14.35;;;;;;;6.38;44.99;95245.28;4961250;28;20041;-84
2022/03/26 03:37:11;;;;;;;29.48;14.38;;;;;;;6.40;45.10;95248.44;4961237;28;20037;-84
2022/03/26 03:39:36;;;;;;;34.83;14.77;;;;;;;6.39;44.74;95246.84;4961095;28;20041;-84
2022/03/26 03:42:03;;;;;;;31.67;14.10;;;;;;;6.39;45.14;95239.84;4961363;28;20140;-84
2022/03/26 03:44:29;;;;;;;29.70;13.85;;;;;;;6.39;45.40;95246.84;4945452;28;20126;-84
2022/03/26 03:46:55;;;;;;;30.08;13.75;;;;;;;6.35;45.34;95249.91;4961051;28;20170;-84
2022/03/26 03:49:21;;;;;;;29.83;14.35;;;;;;;6.29;45.52;95255.19;4945149;28;20491;-84
2022/03/26 03:51:46;;;;;;;33.58;13.88;;;;;;;6.34;45.24;95258.72;4960886;28;20046;-84
2022/03/26 03:54:13;;;;;;;33.63;13.80;;;;;;;6.28;45.36;95251.78;4945089;28;20078;-84
2022/03/26 03:56:39;;;;;;;33.25;13.73;;;;;;;6.21;45.46;95256.28;4961122;28;20347;-84
2022/03/26 03:59:04;;;;;;;29.10;13.80;;;;;;;6.44;45.03;95263.41;4944978;28;20037;-84
2022/03/26 04:01:30;;;;;;;29.75;13.82;;;;;;;6.26;45.71;95258.22;4961004;28;20031;-84
2022/03/26 04:03:55;;;;;;;30.50;14.35;;;;;;;6.31;45.37;95266.97;4960114;28;20077;-84
2022/03/26 04:06:21;;;;;;;33.10;14.50;;;;;;;6.39;45.05;95263.28;4960926;28;20387;-85
2022/03/26 04:08:46;;;;;;;36.15;14.73;;;;;;;6.40;45.22;95267.47;4960922;28;20082;-85
2022/03/26 04:11:11;;;;;;;27.08;12.45;;;;;;;6.33;45.18;95271.94;4944811;28;20113;-84
2022/03/26 04:13:37;;;;;;;30.73;13.77;;;;;;;6.54;44.96;95269.94;4944888;28;20061;-84
2022/03/26 04:16:03;;;;;;;34.40;14.40;;;;;;;6.49;44.99;95275.78;4977910;28;20027;-84
2022/03/26 04:18:28;;;;;;;35.35;14.38;;;;;;;6.44;44.99;95273.03;4960781;28;20030;-84
2022/03/26 04:20:54;;;;;;;32.85;15.50;;;;;;;6.63;44.57;95271.19;4944970;28;20175;-85
2022/03/26 04:23:20;;;;;;;31.63;15.07;;;;;;;6.54;44.91;95269.94;4945115;28;20031;-84
2022/03/26 04:25:46;;;;;;;31.92;15.15;;;;;;;6.52;45.08;95267.53;4960823;28;20037;-84
2022/03/26 04:28:12;;;;;;;33.08;14.75;;;;;;;6.42;44.91;95273.25;4944787;28;20030;-84
2022/03/26 04:30:38;;;;;;;34.40;15.30;;;;;;;6.41;45.39;95269.06;4944616;28;20448;-84
2022/03/26 04:33:03;;;;;;;35.53;15.77;;;;;;;6.36;46.01;95274.91;4960396;28;20058;-84
2022/03/26 04:35:29;;;;;;;34.08;14.85;;;;;;;6.19;46.18;95272.09;4964443;28;20046;-84
2022/03/26 04:37:56;;;;;;;34.65;16.00;;;;;;;6.13;46.17;95277.38;4979767;28;20034;-84
2022/03/26 04:40:25;;;;;;;36.40;15.13;;;;;;;6.03;46.58;95276.06;4964356;28;20466;-84
2022/03/26 04:42:51;;;;;;;35.03;14.52;;;;;;;6.06;46.44;95274.84;4944350;29;20062;-84
2022/03/26 04:45:16;;;;;;;35.88;15.25;;;;;;;6.07;45.83;95273.81;4973664;28;20031;-84
2022/03/26 04:47:42;;;;;;;32.33;13.55;;;;;;;6.26;45.45;95279.81;4963435;28;20069;-84
2022/03/26 04:50:09;;;;;;;33.50;14.90;;;;;;;6.13;45.91;95282.56;4952733;28;20126;-84
2022/03/26 04:52:35;;;;;;;32.25;12.45;;;;;;;6.17;46.64;95287.13;4979469;28;20112;-84
2022/03/26 04:55:03;;;;;;;32.65;13.88;;;;;;;5.80;47.17;95284.44;4963746;28;20092;-84
2022/03/26 04:57:29;;;;;;;30.20;13.77;;;;;;;5.61;47.29;95284.41;4979612;28;20038;-84
2022/03/26 04:59:55;;;;;;;29.65;13.60;;;;;;;5.56;48.24;95278.25;4979488;28;20403;-84
2022/03/26 05:02:20;;;;;;;29.08;13.55;;;;;;;5.51;47.63;95286.69;4963854;28;20030;-84
2022/03/26 05:04:45;;;;;;;29.65;13.55;;;;;;;5.71;47.15;95281.31;4979894;28;20374;-84
2022/03/26 05:10:00;;;;;;;30.92;13.10;;;;;;;5.64;47.10;95288.41;4982147;28;20049;-84
2022/03/26 05:12:26;;;;;;;34.00;12.85;;;;;;;5.54;48.01;95293.28;4979396;28;20040;-84
2022/03/26 05:14:51;;;;;;;30.02;13.32;;;;;;;5.70;47.24;95297.16;4980566;28;20049;-84
2022/03/26 05:17:17;;;;;;;28.75;12.77;;;;;;;5.73;46.98;95297.50;4967433;28;20026;-84
2022/03/26 05:19:42;;;;;;;29.17;12.88;;;;;;;5.68;47.02;95299.16;4967088;28;20060;-84
2022/03/26 05:22:08;;;;;;;27.52;12.82;;;;;;;5.93;46.76;95299.16;4982868;28;20101;-84
2022/03/26 05:24:33;;;;;;;28.25;12.25;;;;;;;5.82;46.74;95302.44;4967007;28;20038;-84
2022/03/26 05:26:59;;;;;;;32.25;13.15;;;;;;;6.00;46.28;95305.06;4982909;28;20026;-84
2022/03/26 05:29:25;;;;;;;36.80;14.27;;;;;;;6.28;45.53;95310.84;4983301;28;20061;-84
2022/03/26 05:31:51;;;;;;;34.63;13.75;;;;;;;6.35;45.98;95306.34;4982737;28;20034;-84
2022/03/26 05:34:17;;;;;;;29.42;13.52;;;;;;;6.33;45.50;95303.19;4966932;28;20034;-84
2022/03/26 05:36:42;;;;;;;34.85;14.10;;;;;;;6.35;46.67;95304.56;4982850;28;20034;-84
2022/03/26 05:39:07;;;;;;;32.05;13.52;;;;;;;6.42;45.59;95314.09;4966708;28;20124;-84
2022/03/26 05:41:33;;;;;;;29.58;13.48;;;;;;;6.45;45.65;95309.25;4979408;28;20473;-84
2022/03/26 05:44:00;;;;;;;34.33;14.00;;;;;;;6.55;45.48;95308.75;4963078;28;20065;-84
2022/03/26 05:46:25;;;;;;;32.00;13.65;;;;;;;6.65;45.12;95310.81;4963303;28;20031;-84
2022/03/26 05:48:51;;;;;;;29.58;13.82;;;;;;;6.73;44.90;95314.94;4963135;28;20042;-84
2022/03/26 05:51:16;;;;;;;37.05;14.77;;;;;;;6.87;44.83;95316.38;4947462;28;20023;-84
2022/03/26 05:53:42;;;;;;;30.23;14.27;;;;;;;6.97;45.42;95310.66;4963076;28;20114;-84
2022/03/26 05:56:07;;;;;;;27.02;13.65;;;;;;;7.00;45.05;95314.59;4963063;28;20062;-87
2022/03/26 05:58:34;;;;;;;29.20;14.02;;;;;;;6.99;46.34;95318.22;4963129;28;20037;-84
2022/03/26 06:01:00;;;;;;;30.10;13.75;;;;;;;6.93;48.15;95320.72;4962663;28;20419;-84
2022/03/26 06:03:25;;;;;;;31.15;14.90;;;;;;;6.97;46.35;95322.88;4947101;28;20118;-84
2022/03/26 06:05:51;;;;;;;33.95;15.10;;;;;;;6.99;46.13;95318.22;4962858;28;20051;-84
2022/03/26 06:08:16;;;;;;;26.10;13.38;;;;;;;6.90;45.69;95318.56;4962832;28;20035;-84
2022/03/26 06:10:41;;;;;;;33.88;13.20;;;;;;;6.87;46.00;95316.38;4957337;28;20027;-83
2022/03/26 06:13:07;;;;;;;32.00;13.88;;;;;;;6.90;46.02;95315.94;4981991;28;20428;-83
2022/03/26 06:15:36;;;;;;;26.95;13.13;;;;;;;6.99;46.02;95320.84;4965925;28;20443;-83
2022/03/26 06:18:04;;;;;;;32.95;13.95;;;;;;;7.05;46.60;95325.19;4966627;28;20061;-83
2022/03/26 06:20:30;;;;;;;30.17;13.25;;;;;;;7.11;46.79;95318.31;4965844;28;20030;-83
2022/03/26 06:22:56;;;;;;;25.23;12.50;;;;;;;7.15;47.12;95320.22;4981902;28;20037;-83
2022/03/26 06:25:21;;;;;;;30.48;14.45;;;;;;;7.24;46.82;95327.75;4981849;28;20474;-83
2022/03/26 06:27:47;;;;;;;29.77;14.70;;;;;;;7.26;46.69;95329.13;4981036;28;20080;-83
2022/03/26 06:30:13;;;;;;;29.88;13.75;;;;;;;7.39;46.81;95329.91;4987579;28;20031;-83
2022/03/26 06:32:39;;;;;;;33.58;14.23;;;;;;;7.54;46.76;95330.31;4975208;28;20085;-83
2022/03/26 06:35:05;;;;;;;31.83;14.27;;;;;;;7.66;47.17;95335.56;4954066;28;20092;-82
2022/03/26 06:37:30;;;;;;;33.60;14.85;;;;;;;7.62;48.23;95337.03;4981529;28;20037;-82
2022/03/26 06:39:56;;;;;;;29.63;13.70;;;;;;;7.83;47.68;95340.09;4981499;28;20034;-82
2022/03/26 06:42:21;;;;;;;33.35;14.45;;;;;;;7.78;47.39;95333.75;4981373;28;20112;-82
2022/03/26 06:44:47;;;;;;;27.10;13.52;;;;;;;7.81;47.10;95340.31;4998411;28;20464;-82
2022/03/26 06:47:12;;;;;;;31.63;14.55;;;;;;;7.76;49.11;95340.22;4998131;28;20026;-82
2022/03/26 06:49:38;;;;;;;35.30;14.45;;;;;;;7.80;48.72;95337.94;4998200;28;20026;-82
2022/03/26 06:52:04;;;;;;;30.35;14.27;;;;;;;7.91;49.14;95342.41;4998049;28;20348;-82
2022/03/26 06:54:30;;;;;;;31.45;13.18;;;;;;;8.00;50.01;95343.63;4997932;28;20030;-82
2022/03/26 06:56:55;;;;;;;27.83;13.75;;;;;;;8.03;51.46;95350.22;4980822;28;20037;-82
2022/03/26 06:59:27;;;;;;;32.13;14.18;;;;;;;7.97;49.36;95353.75;4981236;28;20458;-82
2022/03/26 07:01:52;;;;;;;30.58;13.45;;;;;;;8.11;48.36;95349.91;4965144;28;20034;-82
2022/03/26 07:04:18;;;;;;;31.85;14.65;;;;;;;8.23;47.33;95354.31;4981320;28;20033;-82
2022/03/26 07:06:43;;;;;;;32.10;14.00;;;;;;;8.40;49.81;95351.81;4998382;28;20053;-82
2022/03/26 07:09:09;;;;;;;31.38;14.38;;;;;;;8.20;52.01;95355.56;4981014;28;20093;-82
2022/03/26 07:11:34;;;;;;;32.38;14.68;;;;;;;8.20;51.79;95358.97;4998121;28;20037;-82
2022/03/26 07:14:00;;;;;;;31.13;14.65;;;;;;;8.39;49.07;95347.59;4980851;28;20168;-82
2022/03/26 07:16:25;;;;;;;35.78;15.20;;;;;;;8.43;48.63;95357.38;4980882;28;20033;-83
2022/03/26 07:18:51;;;;;;;31.73;15.70;;;;;;;8.60;49.15;95352.25;4980892;28;20026;-82
2022/03/26 07:21:16;;;;;;;31.98;13.50;;;;;;;8.74;49.61;95359.84;4980622;28;20034;-83
2022/03/26 07:23:42;;;;;;;28.35;14.45;;;;;;;8.82;49.97;95358.69;4980695;28;20030;-83
2022/03/26 07:26:07;;;;;;;33.80;15.93;;;;;;;8.93;49.39;95360.47;4980690;28;20036;-83
2022/03/26 07:28:32;;;;;;;35.58;14.93;;;;;;;9.08;48.05;95361.78;4981091;28;20419;-84
2022/03/26 07:30:58;;;;;;;34.85;15.07;;;;;;;9.16;49.17;95362.22;4980490;28;20033;-85
2022/03/26 07:33:23;;;;;;;31.63;15.45;;;;;;;9.18;48.76;95367.22;4980478;28;20089;-84
2022/03/26 07:35:49;;;;;;;40.25;15.60;;;;;;;9.23;48.92;95361.28;4980580;28;20488;-84
2022/03/26 07:38:14;;;;;;;32.55;14.77;;;;;;;9.34;47.76;95361.25;4964269;28;20030;-84
2022/03/26 07:40:40;;;;;;;40.53;16.10;;;;;;;9.33;47.39;95364.88;4980285;28;20034;-83
2022/03/26 07:43:07;;;;;;;37.38;16.77;;;;;;;9.46;45.75;95368.25;4964182;28;20033;-83
2022/03/26 07:45:33;;;;;;;34.33;15.45;;;;;;;9.35;45.64;95372.50;4964677;28;20053;-83
2022/03/26 07:47:59;;;;;;;37.28;16.70;;;;;;;9.49;47.02;95378.22;4980284;28;20073;-83
2022/03/26 07:50:25;;;;;;;29.42;15.10;;;;;;;9.68;46.55;95376.22;4957729;29;20081;-83
2022/03/26 07:52:50;;;;;;;30.33;15.13;;;;;;;9.76;45.89;95373.22;4926062;29;20038;-83
2022/03/26 07:55:16;;;;;;;32.65;15.35;;;;;;;9.89;45.96;95379.16;4941884;29;20252;-83
2022/03/26 07:57:41;;;;;;;33.38;15.32;;;;;;;10.08;45.55;95384.94;4958837;29;20042;-82
2022/03/26 08:00:09;;;;;;;35.63;16.88;;;;;;;10.14;45.31;95385.81;4941571;29;20419;-83
2022/03/26 08:02:34;;;;;;;37.63;16.10;;;;;;;10.28;44.34;95383.69;4941672;29;20125;-82
2022/03/26 08:05:00;;;;;;;34.33;15.43;;;;;;;10.36;45.41;95385.09;4941768;29;20059;-82
2022/03/26 08:07:27;;;;;;;33.53;15.35;;;;;;;10.41;45.48;95380.75;4925964;29;20039;-82
2022/03/26 08:09:52;;;;;;;35.83;15.77;;;;;;;10.49;46.58;95384.78;4941631;29;20403;-82
2022/03/26 08:12:17;;;;;;;32.88;16.40;;;;;;;10.68;44.14;95381.88;4941422;29;20035;-82
2022/03/26 08:14:43;;;;;;;27.17;14.65;;;;;;;10.60;45.04;95394.34;4958604;29;20039;-82
2022/03/26 08:17:09;;;;;;;42.75;16.65;;;;;;;10.64;44.17;95391.28;4941491;29;20035;-82
2022/03/26 08:19:35;;;;;;;34.78;16.40;;;;;;;10.78;45.60;95397.75;4941414;29;20039;-83
2022/03/26 08:22:02;;;;;;;35.42;17.42;;;;;;;10.83;44.28;95395.19;4957467;29;20125;-82
2022/03/26 08:24:27;;;;;;;37.70;17.60;;;;;;;10.94;45.32;95396.09;4941391;29;20055;-82
2022/03/26 08:26:54;;;;;;;38.95;18.40;;;;;;;11.24;45.28;95399.34;4941283;29;20110;-83
2022/03/26 08:29:19;;;;;;;39.30;18.33;;;;;;;11.39;43.88;95402.13;4941652;29;20125;-83
2022/03/26 08:31:45;;;;;;;46.10;19.45;;;;;;;11.26;46.04;95399.88;4925588;29;20127;-82
2022/03/26 08:34:10;;;;;;;44.22;18.75;;;;;;;11.45;45.73;95393.25;4958527;29;20410;-83
2022/03/26 08:36:37;;;;;;;40.67;18.33;;;;;;;11.43;44.29;95395.34;4941289;29;20024;-83
2022/03/26 08:39:03;;;;;;;40.30;18.83;;;;;;;11.64;43.83;95400.00;4941347;29;20050;-83
2022/03/26 08:41:28;;;;;;;39.33;18.42;;;;;;;11.72;44.23;95410.06;4941055;29;20077;-83
2022/03/26 08:43:54;;;;;;;43.35;19.45;;;;;;;11.76;42.78;95415.59;4958243;29;20031;-87
2022/03/26 08:46:20;;;;;;;40.70;20.25;;;;;;;11.81;43.37;95413.03;4941471;29;20034;-82
2022/03/26 08:48:49;;;;;;;44.17;19.15;;;;;;;11.93;43.84;95410.22;4941217;29;20425;-83
2022/03/26 08:51:15;;;;;;;46.80;18.23;;;;;;;11.93;44.65;95410.22;4944189;29;20082;-82
2022/03/26 08:53:40;;;;;;;43.72;19.20;;;;;;;12.28;43.21;95415.00;4944203;29;20421;-83
2022/03/26 08:56:06;;;;;;;40.92;18.95;;;;;;;12.12;40.97;95410.69;4944587;29;20086;-82
2022/03/26 08:58:36;;;;;;;47.13;19.77;;;;;;;12.23;39.33;95414.19;4944871;29;20070;-83
2022/03/26 09:01:03;;;;;;;41.80;19.55;;;;;;;12.25;38.01;95409.47;4944863;29;20031;-82
2022/03/26 09:03:28;;;;;;;47.53;19.50;;;;;;;12.43;39.89;95414.34;4944974;29;20085;-83
2022/03/26 09:05:54;;;;;;;60.95;21.00;;;;;;;12.44;39.90;95413.28;4944732;29;20023;-83
2022/03/26 09:08:20;;;;;;;43.75;20.30;;;;;;;12.44;40.32;95412.47;4944657;29;20027;-83
2022/03/26 09:10:46;;;;;;;40.92;19.33;;;;;;;12.53;38.15;95410.97;4961680;29;20031;-83
2022/03/26 09:13:11;;;;;;;42.83;19.67;;;;;;;12.55;38.61;95406.25;4951104;28;20031;-83
2022/03/26 09:15:37;;;;;;;40.53;18.95;;;;;;;12.43;39.40;95405.66;4982705;28;20063;-83
2022/03/26 09:18:03;;;;;;;46.20;20.02;;;;;;;12.57;40.79;95408.63;4983131;28;20026;-83
2022/03/26 09:20:28;;;;;;;45.78;20.02;;;;;;;12.70;40.81;95404.75;4983082;28;20081;-83
2022/03/26 09:22:54;;;;;;;43.55;19.80;;;;;;;12.84;37.26;95402.47;4983027;28;20062;-83
2022/03/26 09:25:20;;;;;;;43.92;20.02;;;;;;;12.78;39.11;95409.56;4983157;28;20026;-83
2022/03/26 09:27:46;;;;;;;41.85;19.45;;;;;;;12.67;39.39;95413.16;5000292;28;20120;-83
2022/03/26 09:30:12;;;;;;;45.95;21.20;;;;;;;12.93;38.09;95410.69;4982831;28;20396;-83
2022/03/26 09:32:37;;;;;;;45.40;20.92;;;;;;;12.57;39.05;95398.13;4982558;28;20038;-83
2022/03/26 09:35:03;;;;;;;40.72;19.40;;;;;;;12.76;39.91;95409.00;4982902;28;20030;-82
2022/03/26 09:37:29;;;;;;;42.30;20.08;;;;;;;13.03;40.96;95397.53;5000118;28;20457;-83
2022/03/26 09:39:55;;;;;;;46.40;20.52;;;;;;;13.31;39.88;95400.81;4982627;28;20096;-83
2022/03/26 09:42:23;;;;;;;48.28;22.15;;;;;;;13.22;38.90;95399.75;4982637;28;20032;-83
2022/03/26 09:44:50;;;;;;;53.15;21.48;;;;;;;13.13;39.31;95394.97;4982930;28;20027;-82
2022/03/26 09:47:16;;;;;;;46.90;20.80;;;;;;;13.12;39.57;95396.00;4966712;28;20037;-83
2022/03/26 09:49:42;;;;;;;45.30;21.85;;;;;;;13.18;40.12;95391.56;4982469;28;20026;-83
2022/03/26 09:52:07;;;;;;;43.15;20.58;;;;;;;13.41;40.14;95398.22;4982378;28;20084;-83
2022/03/26 09:54:34;;;;;;;50.08;20.77;;;;;;;13.76;39.22;95387.22;4999793;28;20088;-83
2022/03/26 09:57:00;;;;;;;50.38;21.17;;;;;;;13.81;39.45;95397.78;4982363;28;20033;-83
2022/03/26 09:59:27;;;;;;;48.90;21.77;;;;;;;13.85;36.90;95399.63;4966365;28;20038;-83
2022/03/26 10:01:52;;;;;;;49.15;20.27;;;;;;;13.69;40.08;95395.38;4981244;28;20108;-83
2022/03/26 10:04:21;;;;;;;41.90;21.10;;;;;;;13.64;38.64;95388.28;4982267;28;20037;-83
2022/03/26 10:06:54;;;;;;;51.90;21.52;;;;;;;13.51;37.72;95394.06;4982424;28;20033;-83
2022/03/26 10:09:35;;;;;;;52.03;21.58;;;;;;;13.92;36.05;95398.56;4982145;28;20033;-83
2022/03/26 10:12:12;;;;;;;43.75;21.08;;;;;;;13.92;37.62;95391.47;4981990;28;20022;-83
2022/03/26 10:14:43;;;;;;;46.58;21.15;;;;;;;14.09;37.54;95387.78;4966171;28;20117;-83
2022/03/26 10:17:13;;;;;;;42.45;20.02;;;;;;;14.09;35.15;95393.84;4982169;28;20346;-83
2022/03/26 10:19:50;;;;;;;43.47;19.98;;;;;;;14.46;32.96;95397.22;4981737;28;20359;-83
2022/03/26 10:22:35;;;;;;;47.13;21.50;;;;;;;14.53;34.42;95394.31;4982003;28;20054;-83
2022/03/26 10:25:12;;;;;;;43.67;21.10;;;;;;;14.28;34.94;95391.47;4999313;28;20030;-83
2022/03/26 10:27:40;;;;;;;45.05;21.13;;;;;;;14.41;37.30;95392.75;4981749;28;20033;-82
2022/03/26 10:30:06;;;;;;;49.25;21.60;;;;;;;14.43;33.94;95403.03;4981944;28;20053;-83
2022/03/26 10:32:41;;;;;;;45.95;21.70;;;;;;;14.12;34.44;95393.31;4965668;28;20122;-82
2022/03/26 10:35:09;;;;;;;42.33;19.88;;;;;;;14.38;33.20;95379.34;4966676;28;20485;-83
2022/03/26 10:37:46;;;;;;;44.38;20.30;;;;;;;14.79;33.79;95386.38;4981774;28;20387;-83
2022/03/26 10:40:38;;;;;;;45.78;21.55;;;;;;;14.54;33.20;95383.50;4965676;28;20034;-83
2022/03/26 10:43:11;;;;;;;46.30;20.75;;;;;;;14.28;33.76;95382.78;4960893;28;20046;-83
2022/03/26 10:45:49;;;;;;;42.17;20.40;;;;;;;14.91;33.34;95383.44;4998195;28;20436;-83
2022/03/26 10:48:15;;;;;;;44.92;19.88;;;;;;;15.12;34.02;95382.31;4965742;28;20418;-82
2022/03/26 10:50:41;;;;;;;40.67;20.48;;;;;;;15.33;36.80;95370.84;4965661;28;20027;-83
2022/03/26 10:53:10;;;;;;;42.38;19.63;;;;;;;15.42;34.91;95379.75;4965243;28;20092;-82
2022/03/26 10:55:39;;;;;;;43.78;21.17;;;;;;;15.23;33.36;95379.63;4998946;28;20342;-83
2022/03/26 10:58:05;;;;;;;40.83;19.77;;;;;;;15.22;33.77;95376.19;4965489;28;20478;-82
2022/03/26 11:00:31;;;;;;;43.55;21.05;;;;;;;15.47;33.61;95377.13;4975261;28;20038;-83
2022/03/26 11:02:57;;;;;;;44.15;20.55;;;;;;;15.32;33.97;95383.25;4977658;28;20031;-83
2022/03/26 11:05:23;;;;;;;41.03;20.45;;;;;;;15.54;36.91;95369.66;4978946;28;20030;-83
2022/03/26 11:07:53;;;;;;;45.70;20.50;;;;;;;15.38;33.57;95361.06;4961920;28;20030;-83
2022/03/26 11:10:19;;;;;;;46.95;21.92;;;;;;;15.27;33.75;95367.44;4977961;28;20487;-83
2022/03/26 11:12:46;;;;;;;44.65;21.05;;;;;;;15.08;37.61;95365.44;4977321;28;20031;-83
2022/03/26 11:15:16;;;;;;;40.88;20.35;;;;;;;15.03;33.50;95360.16;4945972;28;20027;-83
2022/03/26 11:17:52;;;;;;;45.70;21.45;;;;;;;15.19;32.62;95360.09;4961852;28;20038;-83
2022/03/26 11:20:45;;;;;;;45.70;20.65;;;;;;;15.34;36.27;95360.00;4977420;28;20039;-83
2022/03/26 11:23:39;;;;;;;47.70;21.63;;;;;;;15.58;34.51;95350.66;4959685;29;20031;-82
2022/03/26 11:26:36;;;;;;;45.28;21.08;;;;;;;15.32;33.17;95340.25;4940277;29;20047;-83
2022/03/26 11:29:27;;;;;;;43.65;21.23;;;;;;;15.38;33.47;95353.13;4942259;29;20114;-83
2022/03/26 11:32:16;;;;;;;40.70;20.67;;;;;;;15.33;32.37;95350.50;4941889;29;20081;-83
2022/03/26 11:34:42;;;;;;;39.70;20.05;;;;;;;15.53;36.55;95338.25;4958123;29;20463;-83
2022/03/26 11:37:20;;;;;;;42.28;20.50;;;;;;;15.72;33.79;95335.75;4959150;29;20035;-83
2022/03/26 11:39:48;;;;;;;41.90;20.50;;;;;;;15.89;32.71;95339.84;4941870;29;20027;-83
2022/03/26 11:42:13;;;;;;;39.33;19.70;;;;;;;15.74;31.60;95346.84;4941517;28;20027;-83
2022/03/26 11:50:41;;;;;;;38.60;19.63;;;;;;;15.79;32.35;95335.44;4956219;28;20368;-83
2022/03/26 11:53:07;;;;;;;52.35;21.60;;;;;;;15.40;32.67;95342.28;4944458;29;20038;-83
2022/03/26 11:55:43;;;;;;;46.92;20.65;;;;;;;15.59;33.71;95336.38;4964460;28;20082;-83
2022/03/26 11:58:24;;;;;;;43.67;21.83;;;;;;;15.55;32.62;95342.19;4969771;28;20034;-83
2022/03/26 12:01:00;;;;;;;46.22;21.98;;;;;;;15.50;32.17;95338.81;4997075;28;20034;-83
2022/03/26 12:03:29;;;;;;;49.00;22.10;;;;;;;15.44;33.07;95334.63;4964299;28;20034;-82
2022/03/26 12:08:54;;;;;;;50.40;23.77;;;;;;;15.52;33.55;95316.34;4982750;28;20484;-82
2022/03/26 12:12:11;;;;;;;45.00;23.02;;;;;;;15.46;36.69;95319.28;4964337;28;20065;-82
2022/03/26 12:15:03;;;;;;;46.90;23.35;;;;;;;15.96;32.45;95313.91;4958399;28;20061;-83
2022/03/26 12:17:50;;;;;;;50.83;21.95;;;;;;;16.11;36.17;95315.63;4952526;28;20038;-83
2022/03/26 12:20:35;;;;;;;52.42;24.77;;;;;;;16.31;35.72;95314.66;4997205;28;20428;-83
2022/03/26 12:23:06;;;;;;;50.25;24.15;;;;;;;16.43;34.44;95319.53;4977502;28;20048;-83
2022/03/26 12:25:36;;;;;;;43.88;24.10;;;;;;;16.12;34.61;95309.28;4961664;28;20042;-83
2022/03/26 12:28:01;;;;;;;55.90;24.42;;;;;;;15.59;32.13;95318.66;4977378;28;20424;-83
2022/03/26 12:30:27;;;;;;;50.95;23.65;;;;;;;15.36;34.81;95305.09;4948029;28;20117;-82
2022/03/26 12:32:52;;;;;;;47.05;24.02;;;;;;;16.00;34.69;95314.94;4963387;28;20043;-82
2022/03/26 12:35:18;;;;;;;48.00;23.08;;;;;;;16.03;33.35;95310.94;4979767;28;20041;-82
2022/03/26 12:37:48;;;;;;;46.47;22.52;;;;;;;15.90;34.42;95307.88;4964343;28;20057;-82
2022/03/26 12:40:14;;;;;;;52.40;24.40;;;;;;;15.76;35.82;95315.63;4944417;28;20035;-82
2022/03/26 12:42:39;;;;;;;44.55;22.90;;;;;;;16.03;34.28;95295.88;4977495;28;20034;-83
2022/03/26 12:45:16;;;;;;;46.65;23.38;;;;;;;16.35;37.16;95297.16;4979711;28;20038;-82
2022/03/26 12:47:48;;;;;;;56.53;24.73;;;;;;;16.51;33.24;95296.97;4963481;28;20152;-83
2022/03/26 12:50:22;;;;;;;48.65;24.25;;;;;;;16.25;33.50;95295.41;4980246;28;20073;-83
2022/03/26 12:52:48;;;;;;;54.83;24.58;;;;;;;16.49;32.15;95293.84;4979289;28;20034;-83
2022/03/26 12:55:16;;;;;;;49.70;24.40;;;;;;;15.49;32.83;95290.47;4996880;28;20039;-83
2022/03/26 13:00:27;;;;;;;52.53;25.42;;;;;;;16.34;33.69;95289.47;4982105;28;20478;-83
2022/03/26 13:03:06;;;;;;;54.78;24.50;;;;;;;16.52;35.91;95287.97;4963317;28;20030;-83
2022/03/26 13:05:34;;;;;;;52.13;25.00;;;;;;;16.52;33.63;95282.69;4963929;28;20022;-83
2022/03/26 13:08:00;;;;;;;49.30;24.67;;;;;;;16.24;33.64;95283.25;4979458;28;20084;-83
2022/03/26 13:10:34;;;;;;;47.70;23.27;;;;;;;16.56;34.03;95288.97;4963168;28;20031;-83